Time;durP1;ratioP1;P1;durP2;ratioP2;P2;SDS_P1;SDS_P2;PMS_P1;PMS_P2;Temp;Humidity;BMP_temperature;BMP_pressure;BME280_temperature;BME280_humidity;BME280_pressure;Samples;Min_cycle;Max_cycle;Signal;HPM_P1;HPM_P2
2021/01/14 00:00:44;;;;;;;0.90;0.90;;;6.60;95.80;;;;;;6380946;27;20353;-78
2021/01/14 00:03:45;;;;;;;0.75;0.75;;;6.30;95.90;;;;;;6380942;27;20039;-76
2021/01/14 00:06:45;;;;;;;0.60;0.60;;;6.40;95.10;;;;;;6380572;27;20035;-77
2021/01/14 00:09:47;;;;;;;0.90;0.90;;;6.60;95.80;;;;;;6380865;27;20019;-76
2021/01/14 00:12:47;;;;;;;0.55;0.55;;;6.50;95.40;;;;;;6380774;27;20106;-77
2021/01/14 00:15:48;;;;;;;0.57;0.57;;;6.30;95.80;;;;;;6380579;27;20445;-75
2021/01/14 00:18:49;;;;;;;1.30;1.20;;;6.30;99.90;;;;;;6380633;27;20091;-75
2021/01/14 00:21:49;;;;;;;0.57;0.57;;;6.30;95.30;;;;;;6380526;27;20024;-76
2021/01/14 00:24:50;;;;;;;0.77;0.77;;;6.40;96.10;;;;;;6380719;27;20019;-76
2021/01/14 00:27:51;;;;;;;0.95;0.85;;;6.50;95.30;;;;;;6380661;27;20404;-76
2021/01/14 00:30:52;;;;;;;1.02;1.02;;;6.40;95.70;;;;;;6380753;27;20126;-76
2021/01/14 00:33:53;;;;;;;0.95;0.95;;;6.30;95.20;;;;;;6379347;27;20076;-77
2021/01/14 00:40:14;;;;;;;0.75;0.75;;;6.40;94.80;;;;;;6376343;27;20027;-76
2021/01/14 00:43:15;;;;;;;0.95;0.90;;;6.40;95.30;;;;;;6376092;27;20571;-76
2021/01/14 00:46:20;;;;;;;1.07;1.07;;;6.40;95.90;;;;;;6376024;27;20109;-75
2021/01/14 00:49:22;;;;;;;1.13;1.10;;;6.50;94.30;;;;;;6357891;27;20027;-78
2021/01/14 00:52:22;;;;;;;0.90;0.90;;;6.70;96.10;;;;;;6376115;27;20048;-77
2021/01/14 00:55:23;;;;;;;0.88;0.88;;;6.70;95.50;;;;;;6375997;27;20042;-75
2021/01/14 00:58:23;;;;;;;0.85;0.85;;;6.40;95.00;;;;;;6376006;27;20031;-76
2021/01/14 01:01:25;;;;;;;1.25;1.15;;;6.50;95.40;;;;;;6375789;27;20030;-77
2021/01/14 01:04:25;;;;;;;0.63;0.63;;;6.30;95.10;;;;;;6375704;27;20381;-76
2021/01/14 01:07:26;;;;;;;0.75;0.75;;;6.50;94.90;;;;;;6375513;27;20035;-77
2021/01/14 01:10:27;;;;;;;0.93;0.93;;;6.60;99.90;;;;;;6376140;27;20421;-75
2021/01/14 01:13:27;;;;;;;0.90;0.90;;;6.40;95.00;;;;;;6375454;27;20364;-77
2021/01/14 01:16:28;;;;;;;1.48;0.95;;;6.40;95.90;;;;;;6375801;27;20463;-77
2021/01/14 01:19:28;;;;;;;0.90;0.90;;;6.50;95.30;;;;;;6375354;27;20027;-75
2021/01/14 01:22:29;;;;;;;0.55;0.55;;;6.80;96.10;;;;;;6375302;27;20034;-77
2021/01/14 01:25:30;;;;;;;0.68;0.68;;;6.50;99.90;;;;;;6375248;27;20023;-76
2021/01/14 01:28:31;;;;;;;0.77;0.77;;;6.60;99.90;;;;;;6375032;27;20038;-76
2021/01/14 01:31:31;;;;;;;0.63;0.63;;;6.50;95.90;;;;;;6375213;27;20019;-77
2021/01/14 01:34:32;;;;;;;0.50;0.50;;;6.40;95.30;;;;;;6375012;27;20042;-76
2021/01/14 01:37:33;;;;;;;1.10;0.95;;;6.70;96.20;;;;;;6375136;27;20083;-76
2021/01/14 01:40:33;;;;;;;0.82;0.82;;;6.40;95.50;;;;;;6375029;27;20110;-76
2021/01/14 01:43:34;;;;;;;0.70;0.70;;;6.50;95.90;;;;;;6375215;27;20024;-76
2021/01/14 01:46:34;;;;;;;0.40;0.40;;;6.80;95.90;;;;;;6374428;27;20031;-76
2021/01/14 01:49:36;;;;;;;0.77;0.77;;;6.50;95.30;;;;;;6356189;27;20031;-78
2021/01/14 01:52:37;;;;;;;0.60;0.60;;;6.40;96.10;;;;;;6374598;27;20027;-75
2021/01/14 01:55:38;;;;;;;0.75;0.75;;;6.40;95.40;;;;;;6374476;27;20034;-76
2021/01/14 01:58:39;;;;;;;0.80;0.80;;;7.40;96.30;;;;;;6374544;27;20019;-77
2021/01/14 02:01:39;;;;;;;0.93;0.93;;;6.40;99.90;;;;;;6355952;27;20062;-78
2021/01/14 02:04:41;;;;;;;0.80;0.80;;;8.30;96.00;;;;;;6374287;27;20047;-77
2021/01/14 02:07:55;;;;;;;0.75;0.75;;;6.40;96.20;;;;;;6373786;27;20372;-76
2021/01/14 02:10:58;;;;;;;0.52;0.52;;;6.40;95.30;;;;;;6339733;27;20064;-76
2021/01/14 02:14:07;;;;;;;1.00;0.88;;;6.50;96.20;;;;;;6374186;27;20026;-76
2021/01/14 02:17:08;;;;;;;0.70;0.70;;;6.60;99.90;;;;;;6356558;27;20035;-76
2021/01/14 02:20:11;;;;;;;0.60;0.60;;;6.60;95.50;;;;;;6355627;27;20541;-77
2021/01/14 02:23:22;;;;;;;0.70;0.70;;;6.40;95.70;;;;;;6355919;27;20038;-75
2021/01/14 02:26:26;;;;;;;0.90;0.90;;;6.30;94.70;;;;;;6356921;27;20460;-76
2021/01/14 02:29:27;;;;;;;0.52;0.52;;;6.40;96.10;;;;;;6373729;27;20050;-76
2021/01/14 02:32:28;;;;;;;0.52;0.52;;;6.30;99.90;;;;;;6355366;27;20019;-76
2021/01/14 02:35:28;;;;;;;0.30;0.30;;;6.30;99.90;;;;;;6373501;27;20034;-76
2021/01/14 02:38:29;;;;;;;0.70;0.70;;;6.40;96.40;;;;;;6373614;27;20023;-76
2021/01/14 02:41:29;;;;;;;0.75;0.68;;;6.30;95.80;;;;;;6373342;27;20051;-76
2021/01/14 02:44:30;;;;;;;0.70;0.70;;;6.30;96.50;;;;;;6373475;27;20467;-76
2021/01/14 02:47:31;;;;;;;0.82;0.77;;;6.70;95.80;;;;;;6373159;27;20041;-76
2021/01/14 02:50:34;;;;;;;1.05;1.05;;;6.40;96.50;;;;;;6338163;27;20023;-76
2021/01/14 02:53:35;;;;;;;0.73;0.73;;;6.20;96.50;;;;;;6355312;27;20042;-76
2021/01/14 02:56:37;;;;;;;0.43;0.43;;;6.10;95.90;;;;;;6354709;27;20069;-76
2021/01/14 02:59:38;;;;;;;0.68;0.68;;;6.30;96.50;;;;;;6372489;27;20015;-76
2021/01/14 03:02:39;;;;;;;0.60;0.60;;;6.20;96.00;;;;;;6354679;27;20034;-75
2021/01/14 03:05:39;;;;;;;0.50;0.50;;;5.90;96.20;;;;;;6372912;27;20067;-77
2021/01/14 03:08:40;;;;;;;1.40;0.55;;;5.90;99.90;;;;;;6372825;27;20061;-76
2021/01/14 03:11:40;;;;;;;0.45;0.40;;;6.00;95.60;;;;;;6372895;27;20022;-76
2021/01/14 03:14:41;;;;;;;0.45;0.40;;;5.80;95.50;;;;;;6372806;27;20027;-76
2021/01/14 03:17:41;;;;;;;0.32;0.32;;;5.80;94.90;;;;;;6373019;27;20095;-76
2021/01/14 03:20:42;;;;;;;0.50;0.50;;;5.80;95.40;;;;;;6372876;27;20364;-76
2021/01/14 03:23:43;;;;;;;0.40;0.40;;;5.60;99.90;;;;;;6372874;27;20019;-76
2021/01/14 03:26:43;;;;;;;0.40;0.40;;;5.90;99.90;;;;;;6372699;28;20031;-76
2021/01/14 03:29:44;;;;;;;0.32;0.32;;;5.60;95.40;;;;;;6372835;28;20023;-78
2021/01/14 03:32:44;;;;;;;0.70;0.70;;;5.40;94.80;;;;;;6372633;27;20023;-76
2021/01/14 03:35:45;;;;;;;0.50;0.50;;;5.40;95.60;;;;;;6372533;27;20031;-76
2021/01/14 03:38:46;;;;;;;0.57;0.57;;;5.40;95.20;;;;;;6372550;27;20023;-76
2021/01/14 03:41:46;;;;;;;1.40;0.80;;;5.30;95.50;;;;;;6372499;28;20094;-75
2021/01/14 03:44:47;;;;;;;0.60;0.60;;;5.20;95.50;;;;;;6372663;28;20022;-75
2021/01/14 03:47:48;;;;;;;0.80;0.80;;;5.10;95.20;;;;;;6372417;27;20074;-77
2021/01/14 03:50:48;;;;;;;1.15;0.93;;;5.50;95.80;;;;;;6372729;28;20028;-75
2021/01/14 03:53:50;;;;;;;0.50;0.50;;;4.90;95.10;;;;;;6372672;28;20023;-77
2021/01/14 03:56:50;;;;;;;0.70;0.70;;;4.90;95.80;;;;;;6372334;27;20144;-76
2021/01/14 03:59:51;;;;;;;0.60;0.60;;;4.60;99.90;;;;;;6372536;27;20024;-76
2021/01/14 04:02:52;;;;;;;0.38;0.38;;;5.00;99.90;;;;;;6372159;27;20031;-77
2021/01/14 04:05:52;;;;;;;0.80;0.80;;;4.20;99.90;;;;;;6372756;27;20043;-77
2021/01/14 04:08:53;;;;;;;0.40;0.40;;;4.60;95.00;;;;;;6354788;27;20046;-76
2021/01/14 04:11:53;;;;;;;1.17;0.50;;;4.60;95.50;;;;;;6377001;27;20058;-76
2021/01/14 04:14:55;;;;;;;0.50;0.50;;;4.40;94.70;;;;;;6377122;27;20023;-76
2021/01/14 04:17:56;;;;;;;0.43;0.43;;;4.20;95.00;;;;;;6377088;27;20453;-77
2021/01/14 04:20:56;;;;;;;0.55;0.55;;;4.20;94.80;;;;;;6376804;27;20030;-76
2021/01/14 04:23:57;;;;;;;0.50;0.50;;;3.90;94.50;;;;;;6376979;27;20027;-76
2021/01/14 04:26:57;;;;;;;1.67;1.27;;;4.30;94.90;;;;;;6376708;27;20083;-76
2021/01/14 04:30:00;;;;;;;2.25;1.65;;;4.00;94.20;;;;;;6376548;27;20039;-76
2021/01/14 04:33:13;;;;;;;1.65;1.23;;;3.90;94.50;;;;;;6376762;27;20039;-75
2021/01/14 04:36:15;;;;;;;;;;;3.30;94.20;;;;;;6376836;27;20037;-76
2021/01/14 04:39:15;;;;;;;7.63;3.83;;;3.70;93.70;;;;;;6376326;27;19907;-76
2021/01/14 04:42:16;;;;;;;5.68;3.65;;;3.40;94.00;;;;;;6376254;27;20029;-75
2021/01/14 04:45:21;;;;;;;3.05;2.08;;;3.20;93.50;;;;;;6341110;27;20046;-77
2021/01/14 04:48:22;;;;;;;0.50;0.50;;;3.30;93.90;;;;;;6340805;27;20046;-76
2021/01/14 04:51:23;;;;;;;0.50;0.50;;;2.80;99.90;;;;;;6376293;27;20110;-76
2021/01/14 04:54:23;;;;;;;0.40;0.40;;;2.90;93.30;;;;;;6340646;27;20364;-77
2021/01/14 04:57:24;;;;;;;0.63;0.60;;;3.80;94.10;;;;;;6376184;27;20026;-76
2021/01/14 05:00:25;;;;;;;0.43;0.43;;;3.00;93.50;;;;;;6357627;27;20027;-75
2021/01/14 05:03:30;;;;;;;0.50;0.50;;;3.90;94.50;;;;;;6375834;27;20096;-76
2021/01/14 05:06:34;;;;;;;0.50;0.50;;;2.30;99.90;;;;;;6375578;27;20027;-76
2021/01/14 05:09:37;;;;;;;0.43;0.43;;;3.10;99.80;;;;;;6375621;27;20037;-75
2021/01/14 05:12:38;;;;;;;0.70;0.70;;;2.30;94.20;;;;;;6340630;27;20027;-76
2021/01/14 05:15:39;;;;;;;0.70;0.70;;;2.40;93.50;;;;;;6340163;27;20041;-75
2021/01/14 05:18:40;;;;;;;0.70;0.70;;;2.50;94.10;;;;;;6375524;27;20050;-76
2021/01/14 05:21:41;;;;;;;1.70;0.82;;;2.20;93.60;;;;;;6374638;27;20023;-76
2021/01/14 05:25:06;;;;;;;2.75;0.85;;;2.60;94.30;;;;;;6357150;27;20023;-76
2021/01/14 05:28:13;;;;;;;0.50;0.50;;;2.00;93.70;;;;;;6358723;27;20042;-77
2021/01/14 05:31:15;;;;;;;1.40;1.20;;;2.00;94.00;;;;;;6375219;27;20114;-76
2021/01/14 05:34:17;;;;;;;1.35;1.25;;;3.20;95.20;;;;;;6375895;27;20042;-76
2021/01/14 05:37:17;;;;;;;1.52;1.33;;;2.40;94.50;;;;;;6375631;27;20019;-75
2021/01/14 05:40:31;;;;;;;1.17;1.00;;;2.00;99.90;;;;;;6339956;27;20022;-76
2021/01/14 05:43:32;;;;;;;1.55;1.45;;;2.80;94.80;;;;;;6375153;27;20019;-76
2021/01/14 05:46:33;;;;;;;2.22;1.60;;;3.20;94.60;;;;;;6356536;27;20342;-76
2021/01/14 05:49:33;;;;;;;1.30;1.23;;;3.50;95.10;;;;;;6374928;27;20102;-77
2021/01/14 05:52:34;;;;;;;2.03;1.83;;;2.00;94.40;;;;;;6356658;27;20378;-75
2021/01/14 05:55:35;;;;;;;2.67;2.38;;;2.20;94.60;;;;;;6374610;27;20050;-76
2021/01/14 05:58:36;;;;;;;2.10;1.90;;;2.50;94.40;;;;;;6339575;27;20399;-75
2021/01/14 06:01:37;;;;;;;3.13;1.70;;;2.50;94.20;;;;;;6374552;27;20039;-76
2021/01/14 06:04:38;;;;;;;1.73;1.63;;;2.90;94.50;;;;;;6374381;27;20500;-77
2021/01/14 06:07:39;;;;;;;1.95;1.80;;;2.60;94.30;;;;;;6374212;27;20119;-76
2021/01/14 06:10:42;;;;;;;1.40;1.30;;;2.00;94.60;;;;;;6356405;27;20019;-75
2021/01/14 06:13:42;;;;;;;3.17;2.63;;;1.90;99.90;;;;;;6374293;27;20027;-75
2021/01/14 06:16:49;;;;;;;1.85;1.75;;;1.80;94.20;;;;;;6374448;27;20137;-77
2021/01/14 06:19:51;;;;;;;3.08;2.88;;;2.80;94.80;;;;;;6374046;27;20454;-76
2021/01/14 06:22:58;;;;;;;4.22;3.83;;;3.10;94.50;;;;;;6338938;27;20034;-76
2021/01/14 06:25:58;;;;;;;2.90;2.53;;;1.70;94.10;;;;;;6356195;27;20528;-76
2021/01/14 06:28:59;;;;;;;2.25;1.88;;;1.80;99.90;;;;;;6373892;27;20039;-76
2021/01/14 06:32:05;;;;;;;2.28;1.98;;;3.10;99.90;;;;;;6373191;27;20047;-75
2021/01/14 06:35:09;;;;;;;2.70;2.17;;;3.10;95.30;;;;;;6373607;27;20101;-76
2021/01/14 06:38:09;;;;;;;2.20;2.00;;;1.40;94.20;;;;;;6373877;27;20094;-76
2021/01/14 06:41:19;;;;;;;3.40;3.10;;;2.40;94.80;;;;;;6355283;27;20453;-76
2021/01/14 06:44:19;;;;;;;2.95;2.65;;;1.80;99.90;;;;;;6373838;27;20076;-76
2021/01/14 06:47:42;;;;;;;2.65;2.45;;;1.80;99.80;;;;;;6338054;27;20035;-76
2021/01/14 06:50:48;;;;;;;2.60;2.40;;;1.70;94.10;;;;;;6373587;27;20063;-76
2021/01/14 06:53:49;;;;;;;3.00;2.75;;;1.90;94.50;;;;;;6373371;27;20082;-76
2021/01/14 06:57:00;;;;;;;3.63;2.90;;;3.10;95.20;;;;;;6338318;27;20449;-76
2021/01/14 07:00:00;;;;;;;4.40;4.00;;;1.60;99.90;;;;;;6373216;27;20034;-76
2021/01/14 07:03:13;;;;;;;6.65;6.05;;;2.10;94.50;;;;;;6337761;27;20027;-76
2021/01/14 07:06:14;;;;;;;4.93;4.45;;;1.60;99.90;;;;;;6372945;27;20369;-76
2021/01/14 07:09:17;;;;;;;3.58;3.28;;;2.40;94.90;;;;;;6338118;27;20015;-76
2021/01/14 07:12:17;;;;;;;4.07;3.67;;;1.60;94.80;;;;;;6338000;27;20043;-75
2021/01/14 07:15:18;;;;;;;5.28;4.50;;;1.50;99.90;;;;;;6338450;27;20029;-75
2021/01/14 07:18:23;;;;;;;7.32;6.20;;;1.60;94.40;;;;;;6373071;27;20027;-76
2021/01/14 07:21:42;;;;;;;7.80;7.00;;;3.20;95.30;;;;;;6338412;28;20020;-75
2021/01/14 07:24:43;;;;;;;9.05;8.07;;;1.70;94.50;;;;;;6372900;27;20059;-76
2021/01/14 07:27:44;;;;;;;7.18;5.43;;;2.10;95.00;;;;;;6337518;28;20077;-75
2021/01/14 07:30:44;;;;;;;6.35;4.70;;;1.60;99.90;;;;;;6355015;28;20031;-75
2021/01/14 07:33:46;;;;;;;7.70;5.78;;;2.00;94.50;;;;;;6373031;27;20034;-75
2021/01/14 07:36:46;;;;;;;7.60;5.85;;;1.60;94.90;;;;;;6372838;27;20072;-75
2021/01/14 07:39:48;;;;;;;4.53;4.13;;;1.90;94.90;;;;;;6372711;28;20346;-75
2021/01/14 07:42:48;;;;;;;4.78;4.30;;;1.90;95.00;;;;;;6372765;28;20091;-75
2021/01/14 07:45:49;;;;;;;4.90;4.47;;;1.80;99.90;;;;;;6358751;27;20025;-75
2021/01/14 07:48:51;;;;;;;5.10;4.60;;;2.90;99.90;;;;;;6356318;27;20453;-75
2021/01/14 07:51:51;;;;;;;5.00;4.50;;;2.30;95.00;;;;;;6359283;27;20362;-75
2021/01/14 07:55:03;;;;;;;5.20;4.70;;;1.70;94.20;;;;;;6377657;27;20026;-76
2021/01/14 07:58:23;;;;;;;5.30;4.80;;;1.80;94.80;;;;;;6377611;27;20031;-76
2021/01/14 08:01:24;;;;;;;6.55;5.82;;;1.70;99.90;;;;;;6360610;27;20019;-75
2021/01/14 08:04:24;;;;;;;7.35;5.82;;;2.20;99.90;;;;;;6358849;27;20393;-75
2021/01/14 08:07:26;;;;;;;6.57;5.80;;;3.20;95.10;;;;;;6377233;27;20474;-75
2021/01/14 08:10:26;;;;;;;7.07;6.35;;;2.70;94.70;;;;;;6377191;27;20058;-76
2021/01/14 08:13:27;;;;;;;6.45;5.80;;;3.40;95.10;;;;;;6359136;27;20015;-75
2021/01/14 08:16:30;;;;;;;9.65;5.72;;;2.30;94.50;;;;;;6358892;27;20037;-75
2021/01/14 08:19:36;;;;;;;8.07;5.38;;;1.80;99.90;;;;;;6377016;27;20023;-75
2021/01/14 08:22:44;;;;;;;6.85;5.90;;;3.10;94.90;;;;;;6377060;27;20035;-75
2021/01/14 08:25:44;;;;;;;7.68;6.25;;;2.20;94.50;;;;;;6377046;27;20469;-75
2021/01/14 08:29:00;;;;;;;7.00;6.30;;;3.00;94.90;;;;;;6358507;27;20035;-75
2021/01/14 08:32:00;;;;;;;9.77;6.40;;;1.80;94.20;;;;;;6359418;27;20019;-75
2021/01/14 08:35:03;;;;;;;9.32;6.22;;;2.00;99.90;;;;;;6376766;27;20122;-76
2021/01/14 08:38:07;;;;;;;7.32;5.93;;;2.50;94.70;;;;;;6377093;27;20410;-75
2021/01/14 08:41:24;;;;;;;7.72;6.65;;;2.50;94.30;;;;;;6377050;27;20023;-75
2021/01/14 08:44:30;;;;;;;9.45;7.65;;;2.60;94.50;;;;;;6360352;27;20035;-75
2021/01/14 08:47:56;;;;;;;6.40;5.70;;;2.00;99.90;;;;;;6357946;27;20671;-75
2021/01/14 08:50:58;;;;;;;7.80;6.93;;;1.80;93.60;;;;;;6376525;27;20034;-75
2021/01/14 08:54:03;;;;;;;9.25;8.25;;;2.70;94.30;;;;;;6376162;27;20023;-75
2021/01/14 08:57:04;;;;;;;11.10;9.38;;;3.00;94.20;;;;;;6357114;27;20023;-75
2021/01/14 09:00:06;;;;;;;11.30;10.15;;;1.80;94.40;;;;;;6376374;27;20039;-75
2021/01/14 09:03:06;;;;;;;12.27;9.63;;;1.80;99.90;;;;;;6357606;27;20039;-75
2021/01/14 09:06:07;;;;;;;11.68;10.57;;;1.90;94.20;;;;;;6376200;27;20012;-74
2021/01/14 09:09:15;;;;;;;11.82;10.50;;;1.90;94.30;;;;;;6375965;27;20118;-75
2021/01/14 09:12:20;;;;;;;10.65;9.55;;;2.00;93.60;;;;;;6376128;27;20050;-75
2021/01/14 09:15:27;;;;;;;10.13;9.02;;;2.90;94.20;;;;;;6375883;27;20011;-75
2021/01/14 09:18:38;;;;;;;11.70;8.45;;;2.00;99.90;;;;;;6375755;27;20015;-75
2021/01/14 09:21:38;;;;;;;10.48;8.93;;;2.00;93.50;;;;;;6375611;27;20391;-75
2021/01/14 09:24:39;;;;;;;10.20;9.02;;;2.60;94.00;;;;;;6375701;27;20051;-75
2021/01/14 09:27:40;;;;;;;9.55;8.55;;;3.30;93.90;;;;;;6375445;27;20426;-75
2021/01/14 09:30:42;;;;;;;10.82;9.57;;;2.10;94.10;;;;;;6375613;27;20468;-76
2021/01/14 09:33:43;;;;;;;10.10;9.10;;;2.20;93.40;;;;;;6357116;27;20030;-75
2021/01/14 09:36:44;;;;;;;7.97;7.18;;;3.10;99.30;;;;;;6375772;27;20110;-75
2021/01/14 09:39:47;;;;;;;7.65;6.85;;;2.20;93.80;;;;;;6375160;27;20079;-75
2021/01/14 09:42:49;;;;;;;9.55;8.55;;;3.20;93.70;;;;;;6375116;27;20087;-75
2021/01/14 09:45:50;;;;;;;9.00;8.10;;;3.20;94.30;;;;;;6374962;27;20376;-75
2021/01/14 09:48:55;;;;;;;9.27;8.32;;;2.50;93.70;;;;;;6374736;27;20035;-75
2021/01/14 09:51:55;;;;;;;11.43;9.82;;;3.50;94.10;;;;;;6357155;27;20373;-75
2021/01/14 09:54:56;;;;;;;10.23;9.20;;;2.90;94.10;;;;;;6374670;27;20023;-75
2021/01/14 09:57:57;;;;;;;12.38;10.80;;;2.70;93.50;;;;;;6374755;27;20516;-75
2021/01/14 10:00:57;;;;;;;11.35;9.93;;;3.40;93.80;;;;;;6356250;27;20075;-75
2021/01/14 10:04:03;;;;;;;11.35;9.50;;;2.80;93.20;;;;;;6356052;27;20461;-75
2021/01/14 10:07:05;;;;;;;10.75;8.98;;;3.70;93.40;;;;;;6355817;27;20034;-75
2021/01/14 10:10:06;;;;;;;13.52;10.63;;;2.30;99.90;;;;;;6356390;27;20023;-75
2021/01/14 10:13:14;;;;;;;61.88;19.95;;;2.50;92.40;;;;;;6355912;27;20118;-75
2021/01/14 10:16:15;;;;;;;1999.90;471.20;;;2.40;92.50;;;;;;6356604;27;20035;-75
2021/01/14 10:19:18;;;;;;;503.40;121.43;;;2.80;93.50;;;;;;6374180;27;20027;-75
2021/01/14 10:22:19;;;;;;;54.53;15.20;;;2.70;93.90;;;;;;6374301;27;20080;-75
2021/01/14 10:25:20;;;;;;;18.42;7.47;;;2.80;99.90;;;;;;6338836;27;20023;-75
2021/01/14 10:28:24;;;;;;;8.73;5.55;;;2.60;93.10;;;;;;6374002;27;20097;-75
2021/01/14 10:31:35;;;;;;;14.43;6.28;;;2.40;92.50;;;;;;6374085;27;20476;-75
2021/01/14 10:34:41;;;;;;;7.18;5.25;;;2.60;93.30;;;;;;6373787;27;20358;-75
2021/01/14 10:37:41;;;;;;;7.93;5.22;;;3.60;93.50;;;;;;6373919;27;20023;-75
2021/01/14 10:40:44;;;;;;;7.80;5.68;;;2.40;93.40;;;;;;6373833;27;20094;-75
2021/01/14 10:43:44;;;;;;;6.65;5.50;;;2.40;93.00;;;;;;6373765;27;20033;-75
2021/01/14 10:46:45;;;;;;;5.88;4.97;;;3.50;93.30;;;;;;6373382;27;20043;-75
2021/01/14 10:49:46;;;;;;;7.57;5.72;;;2.70;92.70;;;;;;6373417;27;20026;-74
2021/01/14 10:53:00;;;;;;;6.53;5.82;;;3.20;93.20;;;;;;6373356;27;20445;-75
2021/01/14 10:56:07;;;;;;;6.35;5.68;;;2.30;99.90;;;;;;6373581;27;20106;-74
2021/01/14 10:59:09;;;;;;;7.65;5.93;;;2.40;92.40;;;;;;6373341;27;20019;-76
2021/01/14 11:02:10;;;;;;;7.72;5.80;;;2.70;93.10;;;;;;6373398;27;20364;-74
2021/01/14 11:05:14;;;;;;;6.88;6.03;;;2.30;99.90;;;;;;6372724;27;20047;-76
2021/01/14 11:08:19;;;;;;;7.07;6.38;;;2.40;92.40;;;;;;6373098;27;20053;-74
2021/01/14 11:11:20;;;;;;;6.63;6.00;;;3.30;93.00;;;;;;6373056;27;20069;-75
2021/01/14 11:14:20;;;;;;;10.90;6.72;;;3.60;93.00;;;;;;6337698;27;20031;-75
2021/01/14 11:17:21;;;;;;;9.95;8.95;;;3.00;93.00;;;;;;6373219;27;20103;-75
2021/01/14 11:20:21;;;;;;;16.65;12.75;;;3.40;92.70;;;;;;6372400;27;20137;-75
2021/01/14 11:23:22;;;;;;;9.02;8.13;;;3.40;93.00;;;;;;6373194;27;20027;-75
2021/01/14 11:26:23;;;;;;;10.63;8.32;;;2.60;92.50;;;;;;6372864;27;20029;-75
2021/01/14 11:29:24;;;;;;;11.73;8.95;;;3.70;99.00;;;;;;6354900;28;20023;-75
2021/01/14 11:32:24;;;;;;;7.80;6.93;;;3.60;93.30;;;;;;6372946;28;20394;-75
2021/01/14 11:35:25;;;;;;;9.13;6.95;;;2.50;92.60;;;;;;6372971;28;20026;-76
2021/01/14 11:38:25;;;;;;;10.30;8.20;;;3.50;93.30;;;;;;6354295;27;20019;-76
2021/01/14 11:41:26;;;;;;;7.32;6.05;;;3.60;93.60;;;;;;6372804;28;20020;-76
2021/01/14 11:44:28;;;;;;;5.68;5.13;;;3.50;93.90;;;;;;6372822;28;20364;-75
2021/01/14 11:47:29;;;;;;;9.13;8.23;;;3.20;94.10;;;;;;6372464;27;20080;-75
2021/01/14 11:50:29;;;;;;;6.18;5.57;;;2.60;92.80;;;;;;6372756;28;20035;-75
2021/01/14 11:53:30;;;;;;;5.85;5.10;;;2.60;93.20;;;;;;6372646;27;20102;-75
2021/01/14 11:56:30;;;;;;;5.90;5.30;;;3.10;93.20;;;;;;6372819;28;20015;-76
2021/01/14 11:59:31;;;;;;;13.20;7.05;;;2.20;94.00;;;;;;6372472;28;20023;-76
2021/01/14 12:02:32;;;;;;;12.65;7.50;;;2.30;99.90;;;;;;6372699;28;20031;-75
2021/01/14 12:05:33;;;;;;;6.53;5.82;;;3.40;98.70;;;;;;6372025;28;20507;-75
2021/01/14 12:08:34;;;;;;;5.25;4.65;;;3.30;93.80;;;;;;6372502;28;20071;-76
2021/01/14 12:11:34;;;;;;;6.03;5.43;;;3.60;92.70;;;;;;6372510;28;20042;-76
2021/01/14 12:14:35;;;;;;;6.03;5.43;;;3.10;92.60;;;;;;6372355;28;20023;-75
2021/01/14 12:17:35;;;;;;;6.72;5.90;;;2.50;92.40;;;;;;6372382;27;20449;-75
2021/01/14 12:20:36;;;;;;;6.68;5.97;;;3.00;92.60;;;;;;6372420;28;20054;-75
2021/01/14 12:23:37;;;;;;;6.57;5.88;;;2.30;92.60;;;;;;6372455;28;20464;-75
2021/01/14 12:26:37;;;;;;;7.38;6.32;;;2.60;92.40;;;;;;6372161;27;20027;-75
2021/01/14 12:29:38;;;;;;;5.00;4.50;;;3.30;92.80;;;;;;6372912;27;20114;-75
2021/01/14 12:32:39;;;;;;;4.97;4.47;;;2.70;92.20;;;;;;6376769;27;20099;-77
2021/01/14 12:35:40;;;;;;;4.70;4.22;;;3.00;92.30;;;;;;6376698;27;20016;-75
2021/01/14 12:38:42;;;;;;;8.32;5.88;;;2.80;92.10;;;;;;6376801;27;20047;-75
2021/01/14 12:41:42;;;;;;;7.38;6.30;;;3.60;92.00;;;;;;6376452;27;20027;-74
2021/01/14 12:44:43;;;;;;;8.60;7.18;;;3.40;92.30;;;;;;6376516;27;20060;-75
2021/01/14 12:47:44;;;;;;;8.48;6.97;;;3.50;92.10;;;;;;6376378;27;20066;-78
2021/01/14 12:50:44;;;;;;;11.00;7.07;;;2.90;92.10;;;;;;6376618;27;20027;-77
2021/01/14 12:53:45;;;;;;;15.45;11.10;;;3.40;91.90;;;;;;6376407;27;20023;-75
2021/01/14 12:56:45;;;;;;;13.90;9.20;;;2.90;97.80;;;;;;6376351;27;20055;-78
2021/01/14 12:59:46;;;;;;;82.35;48.05;;;2.50;92.80;;;;;;6357903;27;20076;-77
2021/01/14 13:02:46;;;;;;;10.57;7.55;;;3.60;92.50;;;;;;6357836;27;20026;-77
2021/01/14 13:05:47;;;;;;;4.68;3.90;;;2.70;91.80;;;;;;6375756;27;20051;-76
2021/01/14 13:08:48;;;;;;;1.92;1.80;;;3.70;91.50;;;;;;6375753;27;20471;-77
2021/01/14 13:11:54;;;;;;;2.60;2.40;;;2.60;91.00;;;;;;6376038;27;20023;-77
2021/01/14 13:14:54;;;;;;;2.38;2.05;;;2.40;99.90;;;;;;6375864;27;20461;-76
2021/01/14 13:17:55;;;;;;;1.90;1.80;;;2.90;90.90;;;;;;6375908;27;20042;-77
2021/01/14 13:20:55;;;;;;;1.85;1.75;;;2.60;91.40;;;;;;6375608;27;20019;-77
2021/01/14 13:23:56;;;;;;;2.90;2.40;;;2.50;91.20;;;;;;6375616;27;20533;-77
2021/01/14 13:26:56;;;;;;;2.53;2.33;;;2.60;91.70;;;;;;6375444;27;20027;-77
2021/01/14 13:29:57;;;;;;;4.50;3.15;;;2.00;99.90;;;;;;6375713;27;20080;-76
2021/01/14 13:32:58;;;;;;;2.70;2.40;;;3.30;97.70;;;;;;6375338;27;20634;-76
2021/01/14 13:35:59;;;;;;;2.00;1.80;;;2.70;92.20;;;;;;6375348;27;20092;-78
2021/01/14 13:38:59;;;;;;;1.77;1.67;;;2.90;92.10;;;;;;6375415;27;20027;-76
2021/01/14 13:42:00;;;;;;;1.88;1.77;;;2.90;92.50;;;;;;6374479;27;20052;-77
2021/01/14 13:45:00;;;;;;;1.70;1.60;;;2.90;92.10;;;;;;6375282;27;20016;-76
2021/01/14 13:48:01;;;;;;;13.70;6.68;;;2.00;92.60;;;;;;6375007;27;20042;-77
2021/01/14 13:51:02;;;;;;;3.60;3.03;;;1.80;92.50;;;;;;6375259;27;20039;-76
2021/01/14 13:54:03;;;;;;;2.47;2.17;;;1.70;92.20;;;;;;6374724;27;20015;-78
2021/01/14 13:57:04;;;;;;;2.80;2.50;;;1.60;92.50;;;;;;6375104;27;20019;-77
2021/01/14 14:00:05;;;;;;;2.97;2.17;;;1.60;91.90;;;;;;6374928;27;20019;-77
2021/01/14 14:03:06;;;;;;;4.60;2.70;;;1.70;92.10;;;;;;6375187;27;20019;-77
2021/01/14 14:06:07;;;;;;;3.38;2.67;;;1.60;99.20;;;;;;6374722;27;20047;-76
2021/01/14 14:09:15;;;;;;;4.05;2.40;;;1.60;92.40;;;;;;6374386;27;20067;-77
2021/01/14 14:12:18;;;;;;;3.28;2.50;;;1.50;91.50;;;;;;6374592;27;20043;-76
2021/01/14 14:15:18;;;;;;;3.53;2.28;;;2.80;92.60;;;;;;6374336;27;20019;-76
2021/01/14 14:18:19;;;;;;;2.13;1.92;;;1.40;93.30;;;;;;6374437;27;20030;-77
2021/01/14 14:21:20;;;;;;;2.03;1.85;;;;;;;;;;6374223;27;20015;-77
2021/01/14 14:24:20;;;;;;;1.60;1.50;;;1.50;97.30;;;;;;6374276;27;20019;-77
2021/01/14 14:27:21;;;;;;;1.13;1.13;;;1.80;93.30;;;;;;6373974;27;20035;-77
2021/01/14 14:30:22;;;;;;;2.17;1.50;;;2.80;93.20;;;;;;6374217;27;20027;-76
2021/01/14 14:33:22;;;;;;;3.28;2.25;;;1.30;93.30;;;;;;6373948;27;20360;-76
2021/01/14 14:36:24;;;;;;;1.70;1.60;;;1.80;93.10;;;;;;6373917;27;20024;-76
2021/01/14 14:39:24;;;;;;;2.72;1.85;;;2.40;93.50;;;;;;6373898;27;20027;-77
2021/01/14 14:42:27;;;;;;;2.60;2.30;;;1.50;93.20;;;;;;6373752;27;20115;-78
2021/01/14 14:45:28;;;;;;;2.70;2.50;;;2.00;92.60;;;;;;6373758;27;20023;-77
2021/01/14 14:48:28;;;;;;;1.73;1.63;;;1.80;93.40;;;;;;6373429;27;20449;-77
2021/01/14 14:51:29;;;;;;;1.48;1.38;;;2.40;92.80;;;;;;6373546;27;20027;-77
2021/01/14 14:54:30;;;;;;;8.77;4.97;;;1.50;92.90;;;;;;6372488;27;20020;-77
2021/01/14 14:57:30;;;;;;;8.05;3.83;;;1.20;99.90;;;;;;6373617;27;20027;-77
2021/01/14 15:00:31;;;;;;;14.30;7.38;;;1.30;92.10;;;;;;6373357;27;20019;-76
2021/01/14 15:03:32;;;;;;;3.85;2.60;;;2.00;93.10;;;;;;6373130;27;20061;-77
2021/01/14 15:06:32;;;;;;;4.28;3.15;;;1.30;92.60;;;;;;6373221;27;20019;-77
2021/01/14 15:09:33;;;;;;;3.85;2.70;;;1.50;93.20;;;;;;6373133;27;20037;-76
2021/01/14 15:12:33;;;;;;;2.83;2.15;;;1.10;99.90;;;;;;6373252;27;20023;-76
2021/01/14 15:15:34;;;;;;;2.78;2.22;;;2.90;99.60;;;;;;6373153;27;20197;-78
2021/01/14 15:18:41;;;;;;;1.95;1.60;;;1.60;94.00;;;;;;6373053;27;20019;-77
2021/01/14 15:21:42;;;;;;;1.70;1.60;;;1.40;93.30;;;;;;6373071;27;20029;-77
2021/01/14 15:24:44;;;;;;;1.83;1.73;;;1.30;94.20;;;;;;6373133;27;20019;-76
2021/01/14 15:27:45;;;;;;;2.00;1.80;;;2.40;93.90;;;;;;6372752;27;20079;-77
2021/01/14 15:30:45;;;;;;;2.25;1.73;;;1.20;94.40;;;;;;6372902;28;20463;-77
2021/01/14 15:33:46;;;;;;;2.00;1.90;;;1.00;94.20;;;;;;6372856;28;20027;-76
2021/01/14 15:36:46;;;;;;;2.72;2.30;;;2.30;94.30;;;;;;6372825;28;20015;-76
2021/01/14 15:39:47;;;;;;;2.60;2.40;;;1.70;94.60;;;;;;6372975;28;20509;-76
2021/01/14 15:42:48;;;;;;;2.65;2.22;;;2.60;94.20;;;;;;6372856;28;20023;-76
2021/01/14 15:45:49;;;;;;;1.85;1.70;;;1.90;94.50;;;;;;6373039;28;20072;-76
2021/01/14 15:48:49;;;;;;;3.50;2.55;;;0.80;99.90;;;;;;6372553;28;20067;-76
2021/01/14 15:51:53;;;;;;;2.08;1.98;;;1.90;93.80;;;;;;6372724;28;20019;-76
2021/01/14 15:54:54;;;;;;;2.50;2.28;;;2.10;94.10;;;;;;6372568;27;20019;-77
2021/01/14 15:57:54;;;;;;;2.65;2.30;;;1.80;93.50;;;;;;6372886;28;20038;-77
2021/01/14 16:00:55;;;;;;;3.40;2.38;;;2.50;93.70;;;;;;6372605;27;20031;-77